sensor_id;sensor_type;location;lat;lon;timestamp;temperature;humidity
18577;DHT22;9418;52.694;13.294;2022-08-01T00:00:15;20.70;32.40
18577;DHT22;9418;52.694;13.294;2022-08-01T00:02:43;20.60;90.60
18577;DHT22;9418;52.694;13.294;2022-08-01T00:05:09;20.50;99.90
18577;DHT22;9418;52.694;13.294;2022-08-01T00:07:37;20.40;99.90
18577;DHT22;9418;52.694;13.294;2022-08-01T00:10:07;20.30;99.90
18577;DHT22;9418;52.694;13.294;2022-08-01T00:12:34;20.20;99.90
18577;DHT22;9418;52.694;13.294;2022-08-01T00:15:01;20.20;99.90
18577;DHT22;9418;52.694;13.294;2022-08-01T00:17:27;20.10;99.90
18577;DHT22;9418;52.694;13.294;2022-08-01T00:19:55;20.00;99.90
18577;DHT22;9418;52.694;13.294;2022-08-01T00:22:22;20.00;99.90
18577;DHT22;9418;52.694;13.294;2022-08-01T00:24:49;19.90;99.90
18577;DHT22;9418;52.694;13.294;2022-08-01T00:27:15;19.70;99.90
18577;DHT22;9418;52.694;13.294;2022-08-01T00:29:42;19.60;99.90
18577;DHT22;9418;52.694;13.294;2022-08-01T00:32:09;19.40;89.40
18577;DHT22;9418;52.694;13.294;2022-08-01T00:34:35;19.20;58.90
18577;DHT22;9418;52.694;13.294;2022-08-01T00:37:03;19.00;20.90
18577;DHT22;9418;52.694;13.294;2022-08-01T00:39:30;18.80;99.90
18577;DHT22;9418;52.694;13.294;2022-08-01T00:41:57;18.70;99.90
18577;DHT22;9418;52.694;13.294;2022-08-01T00:44:24;18.60;99.90
18577;DHT22;9418;52.694;13.294;2022-08-01T00:46:51;18.50;99.90
18577;DHT22;9418;52.694;13.294;2022-08-01T00:49:17;18.40;99.90
18577;DHT22;9418;52.694;13.294;2022-08-01T00:51:44;18.40;81.80
18577;DHT22;9418;52.694;13.294;2022-08-01T00:54:12;18.30;71.60
18577;DHT22;9418;52.694;13.294;2022-08-01T00:56:39;18.40;52.60
18577;DHT22;9418;52.694;13.294;2022-08-01T00:59:06;18.30;39.20
18577;DHT22;9418;52.694;13.294;2022-08-01T01:01:33;18.30;28.40
18577;DHT22;9418;52.694;13.294;2022-08-01T01:04:00;18.20;27.70
18577;DHT22;9418;52.694;13.294;2022-08-01T01:06:32;18.20;92.30
18577;DHT22;9418;52.694;13.294;2022-08-01T01:09:17;18.10;99.90
18577;DHT22;9418;52.694;13.294;2022-08-01T01:11:49;18.10;99.90
18577;DHT22;9418;52.694;13.294;2022-08-01T01:14:26;18.10;99.90
18577;DHT22;9418;52.694;13.294;2022-08-01T01:16:56;18.00;99.90
18577;DHT22;9418;52.694;13.294;2022-08-01T01:19:24;18.10;99.90
18577;DHT22;9418;52.694;13.294;2022-08-01T01:22:14;18.00;99.90
18577;DHT22;9418;52.694;13.294;2022-08-01T01:24:49;18.00;99.90
18577;DHT22;9418;52.694;13.294;2022-08-01T01:27:22;18.10;99.90
18577;DHT22;9418;52.694;13.294;2022-08-01T01:29:54;18.10;99.90
18577;DHT22;9418;52.694;13.294;2022-08-01T01:32:27;18.00;99.90
18577;DHT22;9418;52.694;13.294;2022-08-01T01:34:55;18.10;99.90
18577;DHT22;9418;52.694;13.294;2022-08-01T01:37:25;18.10;99.90
18577;DHT22;9418;52.694;13.294;2022-08-01T01:39:53;18.10;99.90
18577;DHT22;9418;52.694;13.294;2022-08-01T01:42:21;18.10;99.90
18577;DHT22;9418;52.694;13.294;2022-08-01T01:44:52;18.10;99.90
18577;DHT22;9418;52.694;13.294;2022-08-01T01:47:20;18.10;99.90
18577;DHT22;9418;52.694;13.294;2022-08-01T01:49:48;18.10;99.90
18577;DHT22;9418;52.694;13.294;2022-08-01T01:52:17;18.10;99.90
18577;DHT22;9418;52.694;13.294;2022-08-01T01:54:46;18.10;99.90
18577;DHT22;9418;52.694;13.294;2022-08-01T01:57:15;18.00;99.90
18577;DHT22;9418;52.694;13.294;2022-08-01T01:59:44;18.00;99.90
18577;DHT22;9418;52.694;13.294;2022-08-01T02:02:12;18.00;99.90
18577;DHT22;9418;52.694;13.294;2022-08-01T02:04:42;18.00;99.90
18577;DHT22;9418;52.694;13.294;2022-08-01T02:07:11;18.00;99.90
18577;DHT22;9418;52.694;13.294;2022-08-01T02:09:41;17.90;99.90
18577;DHT22;9418;52.694;13.294;2022-08-01T02:12:10;18.00;99.90
18577;DHT22;9418;52.694;13.294;2022-08-01T02:14:38;17.90;99.90
18577;DHT22;9418;52.694;13.294;2022-08-01T02:17:06;17.90;99.90
18577;DHT22;9418;52.694;13.294;2022-08-01T02:19:34;17.80;99.90
18577;DHT22;9418;52.694;13.294;2022-08-01T02:22:04;17.80;99.90
18577;DHT22;9418;52.694;13.294;2022-08-01T02:24:36;17.70;99.90
18577;DHT22;9418;52.694;13.294;2022-08-01T02:27:07;17.80;99.90
18577;DHT22;9418;52.694;13.294;2022-08-01T02:29:39;17.80;99.90
18577;DHT22;9418;52.694;13.294;2022-08-01T02:32:08;17.80;99.90
18577;DHT22;9418;52.694;13.294;2022-08-01T02:34:38;17.80;99.90
18577;DHT22;9418;52.694;13.294;2022-08-01T02:37:06;17.80;99.90
18577;DHT22;9418;52.694;13.294;2022-08-01T02:39:36;17.80;99.90
18577;DHT22;9418;52.694;13.294;2022-08-01T02:42:06;17.70;99.90
18577;DHT22;9418;52.694;13.294;2022-08-01T02:44:38;17.80;99.90
18577;DHT22;9418;52.694;13.294;2022-08-01T02:47:06;17.80;99.90
18577;DHT22;9418;52.694;13.294;2022-08-01T02:49:35;17.80;99.90
18577;DHT22;9418;52.694;13.294;2022-08-01T02:52:07;17.80;99.90
18577;DHT22;9418;52.694;13.294;2022-08-01T02:54:35;17.80;99.90
18577;DHT22;9418;52.694;13.294;2022-08-01T02:57:03;17.80;99.90
18577;DHT22;9418;52.694;13.294;2022-08-01T02:59:32;17.80;99.90
18577;DHT22;9418;52.694;13.294;2022-08-01T03:02:00;17.80;99.90
18577;DHT22;9418;52.694;13.294;2022-08-01T03:04:28;17.80;99.90
18577;DHT22;9418;52.694;13.294;2022-08-01T03:06:56;17.80;99.90
18577;DHT22;9418;52.694;13.294;2022-08-01T03:09:26;17.80;99.90
18577;DHT22;9418;52.694;13.294;2022-08-01T03:11:55;17.80;99.90
18577;DHT22;9418;52.694;13.294;2022-08-01T03:14:23;17.80;99.90
18577;DHT22;9418;52.694;13.294;2022-08-01T03:16:51;17.80;99.90
18577;DHT22;9418;52.694;13.294;2022-08-01T03:19:20;17.90;99.90
18577;DHT22;9418;52.694;13.294;2022-08-01T03:21:49;17.90;99.90
18577;DHT22;9418;52.694;13.294;2022-08-01T03:24:18;17.90;99.90
18577;DHT22;9418;52.694;13.294;2022-08-01T03:26:47;17.90;99.90
18577;DHT22;9418;52.694;13.294;2022-08-01T03:29:17;17.90;99.90
18577;DHT22;9418;52.694;13.294;2022-08-01T03:31:46;17.90;99.90
18577;DHT22;9418;52.694;13.294;2022-08-01T03:34:13;17.90;99.90
18577;DHT22;9418;52.694;13.294;2022-08-01T03:36:46;17.80;99.90
18577;DHT22;9418;52.694;13.294;2022-08-01T03:39:14;17.90;99.90
18577;DHT22;9418;52.694;13.294;2022-08-01T03:41:48;17.90;99.90
18577;DHT22;9418;52.694;13.294;2022-08-01T03:44:23;17.90;99.90
18577;DHT22;9418;52.694;13.294;2022-08-01T03:46:56;17.90;99.90
18577;DHT22;9418;52.694;13.294;2022-08-01T03:49:28;17.90;99.90
18577;DHT22;9418;52.694;13.294;2022-08-01T03:51:56;17.90;99.90
18577;DHT22;9418;52.694;13.294;2022-08-01T03:54:24;17.90;99.90
18577;DHT22;9418;52.694;13.294;2022-08-01T03:56:57;17.90;99.90
18577;DHT22;9418;52.694;13.294;2022-08-01T03:59:24;17.90;99.90
18577;DHT22;9418;52.694;13.294;2022-08-01T04:01:51;17.90;99.90
18577;DHT22;9418;52.694;13.294;2022-08-01T04:04:18;17.90;99.90
18577;DHT22;9418;52.694;13.294;2022-08-01T04:06:45;17.90;99.90
18577;DHT22;9418;52.694;13.294;2022-08-01T04:09:15;17.90;99.90
18577;DHT22;9418;52.694;13.294;2022-08-01T04:11:42;17.90;99.90
18577;DHT22;9418;52.694;13.294;2022-08-01T04:14:10;17.90;99.90
18577;DHT22;9418;52.694;13.294;2022-08-01T04:16:37;17.90;99.90
18577;DHT22;9418;52.694;13.294;2022-08-01T04:19:04;17.90;99.90
18577;DHT22;9418;52.694;13.294;2022-08-01T04:21:34;18.00;99.90
18577;DHT22;9418;52.694;13.294;2022-08-01T04:24:05;18.00;99.90
18577;DHT22;9418;52.694;13.294;2022-08-01T04:26:34;17.90;99.90
18577;DHT22;9418;52.694;13.294;2022-08-01T04:29:04;18.00;99.90
18577;DHT22;9418;52.694;13.294;2022-08-01T04:31:35;18.00;99.90
18577;DHT22;9418;52.694;13.294;2022-08-01T04:34:03;18.00;99.90
18577;DHT22;9418;52.694;13.294;2022-08-01T04:36:33;18.00;99.90
18577;DHT22;9418;52.694;13.294;2022-08-01T04:39:01;18.00;99.90
18577;DHT22;9418;52.694;13.294;2022-08-01T04:41:30;18.00;99.90
18577;DHT22;9418;52.694;13.294;2022-08-01T04:43:57;18.10;99.90
18577;DHT22;9418;52.694;13.294;2022-08-01T04:46:26;18.00;99.90
18577;DHT22;9418;52.694;13.294;2022-08-01T04:48:55;18.10;99.90
18577;DHT22;9418;52.694;13.294;2022-08-01T04:51:22;18.10;99.90
18577;DHT22;9418;52.694;13.294;2022-08-01T04:53:49;18.10;99.90
18577;DHT22;9418;52.694;13.294;2022-08-01T04:56:17;18.10;99.90
18577;DHT22;9418;52.694;13.294;2022-08-01T04:58:43;18.20;99.90
18577;DHT22;9418;52.694;13.294;2022-08-01T05:01:10;18.10;99.90
18577;DHT22;9418;52.694;13.294;2022-08-01T05:03:37;18.20;99.90
18577;DHT22;9418;52.694;13.294;2022-08-01T05:06:05;18.20;99.90
18577;DHT22;9418;52.694;13.294;2022-08-01T05:08:32;18.20;99.90
18577;DHT22;9418;52.694;13.294;2022-08-01T05:10:58;18.20;99.90
18577;DHT22;9418;52.694;13.294;2022-08-01T05:13:26;18.20;99.90
18577;DHT22;9418;52.694;13.294;2022-08-01T05:15:53;18.20;99.90
18577;DHT22;9418;52.694;13.294;2022-08-01T05:18:19;18.20;99.90
18577;DHT22;9418;52.694;13.294;2022-08-01T05:20:47;18.20;99.90
18577;DHT22;9418;52.694;13.294;2022-08-01T05:23:14;18.30;99.90
18577;DHT22;9418;52.694;13.294;2022-08-01T05:25:41;18.30;99.90
18577;DHT22;9418;52.694;13.294;2022-08-01T05:28:08;18.20;99.90
18577;DHT22;9418;52.694;13.294;2022-08-01T05:30:34;18.30;99.90
18577;DHT22;9418;52.694;13.294;2022-08-01T05:33:01;18.30;99.90
18577;DHT22;9418;52.694;13.294;2022-08-01T05:35:27;18.30;99.90
18577;DHT22;9418;52.694;13.294;2022-08-01T05:37:55;18.30;99.90
18577;DHT22;9418;52.694;13.294;2022-08-01T05:40:23;18.40;99.90
18577;DHT22;9418;52.694;13.294;2022-08-01T05:42:49;18.40;99.90
18577;DHT22;9418;52.694;13.294;2022-08-01T05:45:16;18.40;99.90
18577;DHT22;9418;52.694;13.294;2022-08-01T05:47:42;18.40;99.90
18577;DHT22;9418;52.694;13.294;2022-08-01T05:50:09;18.40;99.90
18577;DHT22;9418;52.694;13.294;2022-08-01T05:52:36;18.40;99.90
18577;DHT22;9418;52.694;13.294;2022-08-01T05:55:03;18.40;99.90
18577;DHT22;9418;52.694;13.294;2022-08-01T05:57:31;18.40;99.90
18577;DHT22;9418;52.694;13.294;2022-08-01T05:59:58;18.40;99.90
18577;DHT22;9418;52.694;13.294;2022-08-01T06:02:24;18.40;99.90
18577;DHT22;9418;52.694;13.294;2022-08-01T06:04:51;18.50;99.90
18577;DHT22;9418;52.694;13.294;2022-08-01T06:07:17;18.50;99.90
18577;DHT22;9418;52.694;13.294;2022-08-01T06:09:44;18.40;99.90
18577;DHT22;9418;52.694;13.294;2022-08-01T06:12:11;18.50;99.90
18577;DHT22;9418;52.694;13.294;2022-08-01T06:14:38;18.50;99.90
18577;DHT22;9418;52.694;13.294;2022-08-01T06:17:05;18.60;99.90
18577;DHT22;9418;52.694;13.294;2022-08-01T06:19:32;18.60;99.90
18577;DHT22;9418;52.694;13.294;2022-08-01T06:21:58;18.60;99.90
18577;DHT22;9418;52.694;13.294;2022-08-01T06:24:25;18.70;99.90
18577;DHT22;9418;52.694;13.294;2022-08-01T06:26:52;18.70;99.90
18577;DHT22;9418;52.694;13.294;2022-08-01T06:29:18;18.70;99.90
18577;DHT22;9418;52.694;13.294;2022-08-01T06:31:46;18.70;99.90
18577;DHT22;9418;52.694;13.294;2022-08-01T06:34:13;18.80;99.90
18577;DHT22;9418;52.694;13.294;2022-08-01T06:36:40;18.90;99.90
18577;DHT22;9418;52.694;13.294;2022-08-01T06:39:07;18.90;99.90
18577;DHT22;9418;52.694;13.294;2022-08-01T06:41:33;19.00;99.90
18577;DHT22;9418;52.694;13.294;2022-08-01T06:44:00;19.00;99.90
18577;DHT22;9418;52.694;13.294;2022-08-01T06:46:27;19.00;99.90
18577;DHT22;9418;52.694;13.294;2022-08-01T06:48:55;18.90;99.90
18577;DHT22;9418;52.694;13.294;2022-08-01T06:51:22;19.00;99.90
18577;DHT22;9418;52.694;13.294;2022-08-01T06:53:48;19.00;99.90
18577;DHT22;9418;52.694;13.294;2022-08-01T06:56:15;19.00;99.90
18577;DHT22;9418;52.694;13.294;2022-08-01T06:58:41;19.00;99.90
18577;DHT22;9418;52.694;13.294;2022-08-01T07:01:08;19.10;99.90
18577;DHT22;9418;52.694;13.294;2022-08-01T07:03:35;19.10;99.90
18577;DHT22;9418;52.694;13.294;2022-08-01T07:06:03;19.20;99.90
18577;DHT22;9418;52.694;13.294;2022-08-01T07:08:30;19.30;99.90
18577;DHT22;9418;52.694;13.294;2022-08-01T07:10:57;19.20;99.90
18577;DHT22;9418;52.694;13.294;2022-08-01T07:13:25;19.20;99.90
18577;DHT22;9418;52.694;13.294;2022-08-01T07:15:52;19.20;99.90
18577;DHT22;9418;52.694;13.294;2022-08-01T07:18:19;19.20;99.90
18577;DHT22;9418;52.694;13.294;2022-08-01T07:20:46;19.20;99.90
18577;DHT22;9418;52.694;13.294;2022-08-01T07:23:14;19.20;99.90
18577;DHT22;9418;52.694;13.294;2022-08-01T07:25:40;19.30;99.90
18577;DHT22;9418;52.694;13.294;2022-08-01T07:28:07;19.40;99.90
18577;DHT22;9418;52.694;13.294;2022-08-01T07:30:34;19.40;99.90
18577;DHT22;9418;52.694;13.294;2022-08-01T07:33:01;19.50;99.90
18577;DHT22;9418;52.694;13.294;2022-08-01T07:35:27;19.60;99.90
18577;DHT22;9418;52.694;13.294;2022-08-01T07:37:54;19.70;99.90
18577;DHT22;9418;52.694;13.294;2022-08-01T07:40:22;19.70;21.40
18577;DHT22;9418;52.694;13.294;2022-08-01T07:42:48;19.70;30.40
18577;DHT22;9418;52.694;13.294;2022-08-01T07:45:15;19.70;36.50
18577;DHT22;9418;52.694;13.294;2022-08-01T07:47:42;19.60;50.30
18577;DHT22;9418;52.694;13.294;2022-08-01T07:50:09;19.60;67.30
18577;DHT22;9418;52.694;13.294;2022-08-01T07:52:37;19.70;81.20
18577;DHT22;9418;52.694;13.294;2022-08-01T07:55:05;19.70;87.60
18577;DHT22;9418;52.694;13.294;2022-08-01T07:57:33;19.80;98.20
18577;DHT22;9418;52.694;13.294;2022-08-01T08:00:00;19.80;92.10
18577;DHT22;9418;52.694;13.294;2022-08-01T08:02:27;19.80;99.90
18577;DHT22;9418;52.694;13.294;2022-08-01T08:04:53;19.80;99.90
18577;DHT22;9418;52.694;13.294;2022-08-01T08:07:20;19.80;99.90
18577;DHT22;9418;52.694;13.294;2022-08-01T08:09:46;19.80;99.90
18577;DHT22;9418;52.694;13.294;2022-08-01T08:12:13;19.70;99.90
18577;DHT22;9418;52.694;13.294;2022-08-01T08:14:41;19.60;98.90
18577;DHT22;9418;52.694;13.294;2022-08-01T08:17:07;19.60;98.70
18577;DHT22;9418;52.694;13.294;2022-08-01T08:19:34;19.60;99.90
18577;DHT22;9418;52.694;13.294;2022-08-01T08:22:03;19.60;99.90
18577;DHT22;9418;52.694;13.294;2022-08-01T08:24:30;19.60;99.90
18577;DHT22;9418;52.694;13.294;2022-08-01T08:26:58;19.60;99.90
18577;DHT22;9418;52.694;13.294;2022-08-01T08:29:26;19.60;99.90
18577;DHT22;9418;52.694;13.294;2022-08-01T08:31:57;19.70;99.90
18577;DHT22;9418;52.694;13.294;2022-08-01T08:34:24;19.80;99.90
18577;DHT22;9418;52.694;13.294;2022-08-01T08:36:51;19.80;99.90
18577;DHT22;9418;52.694;13.294;2022-08-01T08:39:18;19.90;99.90
18577;DHT22;9418;52.694;13.294;2022-08-01T08:41:45;20.00;99.90
18577;DHT22;9418;52.694;13.294;2022-08-01T08:44:11;20.00;99.90
18577;DHT22;9418;52.694;13.294;2022-08-01T08:46:42;20.00;99.90
18577;DHT22;9418;52.694;13.294;2022-08-01T08:49:12;20.00;99.90
18577;DHT22;9418;52.694;13.294;2022-08-01T08:51:40;20.00;99.90
18577;DHT22;9418;52.694;13.294;2022-08-01T08:54:08;20.00;99.90
18577;DHT22;9418;52.694;13.294;2022-08-01T08:56:37;20.00;99.90
18577;DHT22;9418;52.694;13.294;2022-08-01T08:59:04;19.90;99.90
18577;DHT22;9418;52.694;13.294;2022-08-01T09:01:32;20.00;99.90
18577;DHT22;9418;52.694;13.294;2022-08-01T09:04:00;20.00;99.90
18577;DHT22;9418;52.694;13.294;2022-08-01T09:06:29;20.00;99.90
18577;DHT22;9418;52.694;13.294;2022-08-01T09:08:55;20.00;99.90
18577;DHT22;9418;52.694;13.294;2022-08-01T09:11:22;20.00;99.90
18577;DHT22;9418;52.694;13.294;2022-08-01T09:14:02;20.00;99.90
18577;DHT22;9418;52.694;13.294;2022-08-01T09:16:29;19.90;99.90
18577;DHT22;9418;52.694;13.294;2022-08-01T09:19:06;19.90;99.90
18577;DHT22;9418;52.694;13.294;2022-08-01T09:21:35;19.90;99.90
18577;DHT22;9418;52.694;13.294;2022-08-01T09:24:02;19.90;99.90
18577;DHT22;9418;52.694;13.294;2022-08-01T09:26:32;19.90;99.90
18577;DHT22;9418;52.694;13.294;2022-08-01T09:29:00;19.80;99.90
18577;DHT22;9418;52.694;13.294;2022-08-01T09:31:28;19.80;99.90
18577;DHT22;9418;52.694;13.294;2022-08-01T09:33:56;19.80;99.90
18577;DHT22;9418;52.694;13.294;2022-08-01T09:36:24;19.80;99.90
18577;DHT22;9418;52.694;13.294;2022-08-01T09:38:54;19.80;99.90
18577;DHT22;9418;52.694;13.294;2022-08-01T09:41:29;19.80;99.90
18577;DHT22;9418;52.694;13.294;2022-08-01T09:43:57;19.80;99.90
18577;DHT22;9418;52.694;13.294;2022-08-01T09:46:25;19.80;99.90
18577;DHT22;9418;52.694;13.294;2022-08-01T09:48:56;19.90;99.90
18577;DHT22;9418;52.694;13.294;2022-08-01T09:51:33;19.90;99.90
18577;DHT22;9418;52.694;13.294;2022-08-01T09:54:03;20.10;99.90
18577;DHT22;9418;52.694;13.294;2022-08-01T09:56:36;20.10;99.90
18577;DHT22;9418;52.694;13.294;2022-08-01T09:59:03;20.20;99.90
18577;DHT22;9418;52.694;13.294;2022-08-01T10:01:42;20.40;99.90
18577;DHT22;9418;52.694;13.294;2022-08-01T10:04:12;20.50;74.10
18577;DHT22;9418;52.694;13.294;2022-08-01T10:06:39;20.50;22.30
18577;DHT22;9418;52.694;13.294;2022-08-01T10:09:09;20.50;30.10
18577;DHT22;9418;52.694;13.294;2022-08-01T10:11:37;20.50;25.60
18577;DHT22;9418;52.694;13.294;2022-08-01T10:14:04;20.50;99.90
18577;DHT22;9418;52.694;13.294;2022-08-01T10:16:34;20.50;99.90
18577;DHT22;9418;52.694;13.294;2022-08-01T10:19:02;20.50;99.90
18577;DHT22;9418;52.694;13.294;2022-08-01T10:21:32;20.40;99.90
18577;DHT22;9418;52.694;13.294;2022-08-01T10:24:00;20.40;99.90
18577;DHT22;9418;52.694;13.294;2022-08-01T10:26:31;20.40;99.90
18577;DHT22;9418;52.694;13.294;2022-08-01T10:28:58;20.40;27.50
18577;DHT22;9418;52.694;13.294;2022-08-01T10:31:26;20.40;25.70
18577;DHT22;9418;52.694;13.294;2022-08-01T10:33:57;20.40;81.60
18577;DHT22;9418;52.694;13.294;2022-08-01T10:36:24;20.40;99.90
18577;DHT22;9418;52.694;13.294;2022-08-01T10:38:51;20.30;99.90
18577;DHT22;9418;52.694;13.294;2022-08-01T10:41:19;20.30;99.90
18577;DHT22;9418;52.694;13.294;2022-08-01T10:43:47;20.30;99.90
18577;DHT22;9418;52.694;13.294;2022-08-01T10:46:14;20.30;99.90
18577;DHT22;9418;52.694;13.294;2022-08-01T10:48:47;20.40;99.90
18577;DHT22;9418;52.694;13.294;2022-08-01T10:51:16;20.30;99.90
18577;DHT22;9418;52.694;13.294;2022-08-01T10:53:50;20.30;99.90
18577;DHT22;9418;52.694;13.294;2022-08-01T10:56:17;20.30;99.90
18577;DHT22;9418;52.694;13.294;2022-08-01T10:58:46;20.30;99.90
18577;DHT22;9418;52.694;13.294;2022-08-01T11:01:20;20.20;99.90
18577;DHT22;9418;52.694;13.294;2022-08-01T11:04:02;20.10;99.90
18577;DHT22;9418;52.694;13.294;2022-08-01T11:06:40;20.00;99.90
18577;DHT22;9418;52.694;13.294;2022-08-01T11:09:23;19.90;99.90
18577;DHT22;9418;52.694;13.294;2022-08-01T11:11:58;19.80;99.90
18577;DHT22;9418;52.694;13.294;2022-08-01T11:14:25;19.70;99.90
18577;DHT22;9418;52.694;13.294;2022-08-01T11:16:53;19.60;99.90
18577;DHT22;9418;52.694;13.294;2022-08-01T11:19:20;19.60;99.90
18577;DHT22;9418;52.694;13.294;2022-08-01T11:21:59;19.60;99.90
18577;DHT22;9418;52.694;13.294;2022-08-01T11:24:59;19.70;99.90
18577;DHT22;9418;52.694;13.294;2022-08-01T11:27:28;19.80;99.90
18577;DHT22;9418;52.694;13.294;2022-08-01T11:30:28;19.80;99.90
18577;DHT22;9418;52.694;13.294;2022-08-01T11:32:57;19.90;99.90
18577;DHT22;9418;52.694;13.294;2022-08-01T11:35:24;20.00;99.90
18577;DHT22;9418;52.694;13.294;2022-08-01T11:37:53;20.20;99.90
18577;DHT22;9418;52.694;13.294;2022-08-01T11:40:23;20.30;99.90
18577;DHT22;9418;52.694;13.294;2022-08-01T11:43:17;20.40;99.90
18577;DHT22;9418;52.694;13.294;2022-08-01T11:45:48;20.50;99.90
18577;DHT22;9418;52.694;13.294;2022-08-01T11:48:22;20.60;99.90
18577;DHT22;9418;52.694;13.294;2022-08-01T11:50:50;20.80;26.70
18577;DHT22;9418;52.694;13.294;2022-08-01T11:53:18;21.10;40.00
18577;DHT22;9418;52.694;13.294;2022-08-01T11:55:47;21.40;58.00
18577;DHT22;9418;52.694;13.294;2022-08-01T11:58:15;21.50;72.30
18577;DHT22;9418;52.694;13.294;2022-08-01T12:00:50;21.60;87.10
18577;DHT22;9418;52.694;13.294;2022-08-01T12:03:24;21.60;98.20
18577;DHT22;9418;52.694;13.294;2022-08-01T12:05:51;21.60;98.00
18577;DHT22;9418;52.694;13.294;2022-08-01T12:08:24;21.60;90.20
18577;DHT22;9418;52.694;13.294;2022-08-01T12:10:51;21.50;97.40
18577;DHT22;9418;52.694;13.294;2022-08-01T12:13:18;21.50;96.00
18577;DHT22;9418;52.694;13.294;2022-08-01T12:15:45;21.50;89.80
18577;DHT22;9418;52.694;13.294;2022-08-01T12:18:12;21.50;82.30
18577;DHT22;9418;52.694;13.294;2022-08-01T12:20:42;21.50;96.40
18577;DHT22;9418;52.694;13.294;2022-08-01T12:23:11;21.50;76.70
18577;DHT22;9418;52.694;13.294;2022-08-01T12:25:39;21.50;83.00
18577;DHT22;9418;52.694;13.294;2022-08-01T12:28:08;21.40;77.00
18577;DHT22;9418;52.694;13.294;2022-08-01T12:30:35;21.40;80.30
18577;DHT22;9418;52.694;13.294;2022-08-01T12:33:03;21.30;79.90
18577;DHT22;9418;52.694;13.294;2022-08-01T12:35:31;21.20;75.60
18577;DHT22;9418;52.694;13.294;2022-08-01T12:38:01;21.20;72.40
18577;DHT22;9418;52.694;13.294;2022-08-01T12:40:31;21.10;84.60
18577;DHT22;9418;52.694;13.294;2022-08-01T12:42:59;21.10;78.90
18577;DHT22;9418;52.694;13.294;2022-08-01T12:45:29;21.10;76.80
18577;DHT22;9418;52.694;13.294;2022-08-01T12:47:57;21.00;58.10
18577;DHT22;9418;52.694;13.294;2022-08-01T12:50:26;21.00;46.50
18577;DHT22;9418;52.694;13.294;2022-08-01T12:52:54;20.90;45.10
18577;DHT22;9418;52.694;13.294;2022-08-01T12:55:22;20.80;43.20
18577;DHT22;9418;52.694;13.294;2022-08-01T12:58:03;20.70;42.50
18577;DHT22;9418;52.694;13.294;2022-08-01T13:00:30;20.60;30.70
18577;DHT22;9418;52.694;13.294;2022-08-01T13:03:01;20.60;99.90
18577;DHT22;9418;52.694;13.294;2022-08-01T13:05:40;20.60;99.90
18577;DHT22;9418;52.694;13.294;2022-08-01T13:08:10;20.50;99.90
18577;DHT22;9418;52.694;13.294;2022-08-01T13:10:38;20.60;99.90
18577;DHT22;9418;52.694;13.294;2022-08-01T13:13:05;20.60;99.90
18577;DHT22;9418;52.694;13.294;2022-08-01T13:15:33;20.60;99.90
18577;DHT22;9418;52.694;13.294;2022-08-01T13:18:21;20.70;99.90
18577;DHT22;9418;52.694;13.294;2022-08-01T13:20:48;20.80;99.90
18577;DHT22;9418;52.694;13.294;2022-08-01T13:23:17;20.80;89.80
18577;DHT22;9418;52.694;13.294;2022-08-01T13:25:56;20.80;22.80
18577;DHT22;9418;52.694;13.294;2022-08-01T13:28:25;20.90;23.30
18577;DHT22;9418;52.694;13.294;2022-08-01T13:30:57;20.90;24.70
18577;DHT22;9418;52.694;13.294;2022-08-01T13:33:25;21.00;32.00
18577;DHT22;9418;52.694;13.294;2022-08-01T13:35:53;21.00;34.20
18577;DHT22;9418;52.694;13.294;2022-08-01T13:38:20;21.10;43.60
18577;DHT22;9418;52.694;13.294;2022-08-01T13:41:08;21.20;38.90
18577;DHT22;9418;52.694;13.294;2022-08-01T13:43:35;21.30;47.10
18577;DHT22;9418;52.694;13.294;2022-08-01T13:46:01;21.40;76.30
18577;DHT22;9418;52.694;13.294;2022-08-01T13:48:29;21.50;75.80
18577;DHT22;9418;52.694;13.294;2022-08-01T13:50:56;21.60;96.20
18577;DHT22;9418;52.694;13.294;2022-08-01T13:53:23;21.60;99.90
18577;DHT22;9418;52.694;13.294;2022-08-01T13:55:49;21.70;99.90
18577;DHT22;9418;52.694;13.294;2022-08-01T13:58:17;21.70;99.90
18577;DHT22;9418;52.694;13.294;2022-08-01T14:00:44;21.70;99.90
18577;DHT22;9418;52.694;13.294;2022-08-01T14:03:11;21.80;99.90
18577;DHT22;9418;52.694;13.294;2022-08-01T14:05:38;21.90;99.90
18577;DHT22;9418;52.694;13.294;2022-08-01T14:08:05;22.00;99.90
18577;DHT22;9418;52.694;13.294;2022-08-01T14:10:32;22.00;99.90
18577;DHT22;9418;52.694;13.294;2022-08-01T14:12:58;22.00;99.90
18577;DHT22;9418;52.694;13.294;2022-08-01T14:15:26;21.90;1.40
18577;DHT22;9418;52.694;13.294;2022-08-01T14:17:53;21.90;99.90
18577;DHT22;9418;52.694;13.294;2022-08-01T14:20:19;21.80;99.90
18577;DHT22;9418;52.694;13.294;2022-08-01T14:22:46;21.80;99.90
18577;DHT22;9418;52.694;13.294;2022-08-01T14:25:13;21.70;99.90
18577;DHT22;9418;52.694;13.294;2022-08-01T14:27:40;21.60;99.90
18577;DHT22;9418;52.694;13.294;2022-08-01T14:30:08;21.60;99.90
18577;DHT22;9418;52.694;13.294;2022-08-01T14:32:36;21.50;99.90
18577;DHT22;9418;52.694;13.294;2022-08-01T14:35:04;21.50;99.90
18577;DHT22;9418;52.694;13.294;2022-08-01T14:37:31;21.60;99.90
18577;DHT22;9418;52.694;13.294;2022-08-01T14:39:58;21.80;99.90
18577;DHT22;9418;52.694;13.294;2022-08-01T14:42:26;21.90;99.90
18577;DHT22;9418;52.694;13.294;2022-08-01T14:44:52;22.00;99.90
18577;DHT22;9418;52.694;13.294;2022-08-01T14:47:19;22.10;99.90
18577;DHT22;9418;52.694;13.294;2022-08-01T14:49:47;22.10;99.90
18577;DHT22;9418;52.694;13.294;2022-08-01T14:52:13;22.40;99.90
18577;DHT22;9418;52.694;13.294;2022-08-01T14:54:40;22.60;99.90
18577;DHT22;9418;52.694;13.294;2022-08-01T14:57:06;22.80;25.80
18577;DHT22;9418;52.694;13.294;2022-08-01T14:59:33;22.90;27.90
18577;DHT22;9418;52.694;13.294;2022-08-01T15:02:00;23.10;33.90
18577;DHT22;9418;52.694;13.294;2022-08-01T15:04:26;23.30;62.30
18577;DHT22;9418;52.694;13.294;2022-08-01T15:06:54;23.40;87.60
18577;DHT22;9418;52.694;13.294;2022-08-01T15:09:22;23.40;87.10
18577;DHT22;9418;52.694;13.294;2022-08-01T15:11:49;23.40;97.70
18577;DHT22;9418;52.694;13.294;2022-08-01T15:14:16;23.50;94.50
18577;DHT22;9418;52.694;13.294;2022-08-01T15:17:00;23.50;90.00
18577;DHT22;9418;52.694;13.294;2022-08-01T15:19:26;23.50;99.10
18577;DHT22;9418;52.694;13.294;2022-08-01T15:21:54;23.40;90.40
18577;DHT22;9418;52.694;13.294;2022-08-01T15:24:21;23.40;95.10
18577;DHT22;9418;52.694;13.294;2022-08-01T15:26:47;23.40;99.90
18577;DHT22;9418;52.694;13.294;2022-08-01T15:29:14;23.40;99.90
18577;DHT22;9418;52.694;13.294;2022-08-01T15:31:41;23.40;99.90
18577;DHT22;9418;52.694;13.294;2022-08-01T15:34:07;23.40;99.90
18577;DHT22;9418;52.694;13.294;2022-08-01T15:36:34;23.50;99.90
18577;DHT22;9418;52.694;13.294;2022-08-01T15:39:02;23.50;99.90